createdAt,value
2018-01-19T00:01:57.821Z,99471.15
2018-01-19T00:04:26.150Z,99467.55
2018-01-19T00:06:54.466Z,99472.78
2018-01-19T00:09:22.793Z,99470.31
2018-01-19T00:11:51.108Z,99470.94
2018-01-19T00:14:19.456Z,99468.88
2018-01-19T00:16:47.773Z,99471.31
2018-01-19T00:19:16.081Z,99470.40
2018-01-19T00:21:44.408Z,99467.70
2018-01-19T00:24:12.721Z,99462.96
2018-01-19T00:26:41.053Z,99463.53
2018-01-19T00:29:09.366Z,99461.11
2018-01-19T00:31:37.701Z,99469.28
2018-01-19T00:34:06.009Z,99470.70
2018-01-19T00:36:34.340Z,99467.97
2018-01-19T00:39:02.657Z,99473.22
2018-01-19T00:41:30.985Z,99483.94
2018-01-19T00:43:59.293Z,99479.56
2018-01-19T00:46:27.621Z,99482.97
2018-01-19T00:48:55.945Z,99489.52
2018-01-19T00:51:24.274Z,99486.70
2018-01-19T00:53:52.587Z,99489.97
2018-01-19T00:56:20.921Z,99493.14
2018-01-19T00:58:49.233Z,99497.04
2018-01-19T01:01:17.565Z,99494.21
2018-01-19T01:03:45.877Z,99503.13
2018-01-19T01:06:14.204Z,99504.09
2018-01-19T01:08:42.520Z,99507.56
2018-01-19T01:11:10.845Z,99511.45
2018-01-19T01:13:39.160Z,99516.42
2018-01-19T01:16:07.494Z,99517.73
2018-01-19T01:18:35.801Z,99526.36
2018-01-19T01:21:04.138Z,99525.53
2018-01-19T01:23:32.445Z,99528.61
2018-01-19T01:26:00.778Z,99524.09
2018-01-19T01:28:29.089Z,99529.94
2018-01-19T01:30:57.422Z,99531.20
2018-01-19T01:33:25.729Z,99533.00
2018-01-19T01:35:54.057Z,99530.48
2018-01-19T01:38:22.374Z,99541.16
2018-01-19T01:40:50.705Z,99538.62
2018-01-19T01:43:19.019Z,99541.14
2018-01-19T01:45:47.353Z,99539.09
2018-01-19T01:48:15.661Z,99537.48
2018-01-19T01:50:43.994Z,99536.17
2018-01-19T01:53:12.310Z,99537.47
2018-01-19T01:55:40.648Z,99539.88
2018-01-19T01:58:08.957Z,99534.88
2018-01-19T02:00:37.294Z,99540.11
2018-01-19T02:03:05.605Z,99541.61
2018-01-19T02:05:33.937Z,99541.31
2018-01-19T02:08:02.252Z,99543.41
2018-01-19T02:10:30.576Z,99540.30
2018-01-19T02:12:58.892Z,99542.73
2018-01-19T02:15:27.221Z,99549.55
2018-01-19T02:17:55.549Z,99548.67
2018-01-19T02:20:23.865Z,99544.05
2018-01-19T02:22:52.193Z,99545.80
2018-01-19T02:25:20.501Z,99547.08
2018-01-19T02:27:49.564Z,99548.50
2018-01-19T02:30:17.869Z,99553.30
2018-01-19T02:32:46.205Z,99556.44
2018-01-19T02:35:14.514Z,99545.88
2018-01-19T02:37:42.861Z,99551.81
2018-01-19T02:40:11.174Z,99553.36
2018-01-19T02:42:39.509Z,99545.54
2018-01-19T02:45:07.821Z,99556.93
2018-01-19T02:47:36.159Z,99553.64
2018-01-19T02:50:04.469Z,99559.09
2018-01-19T02:52:32.797Z,99552.05
2018-01-19T02:55:01.105Z,99553.00
2018-01-19T02:57:29.444Z,99551.16
2018-01-19T02:59:57.759Z,99552.42
2018-01-19T03:02:26.086Z,99555.89
2018-01-19T03:04:54.405Z,99555.73
2018-01-19T03:07:22.734Z,99558.59
2018-01-19T03:09:51.044Z,99556.44
2018-01-19T03:12:19.373Z,99549.59
2018-01-19T03:14:47.689Z,99555.35
2018-01-19T03:17:16.026Z,99559.23
2018-01-19T03:19:44.329Z,99556.56
2018-01-19T03:22:12.657Z,99563.18
2018-01-19T03:24:40.965Z,99570.17
2018-01-19T03:27:09.293Z,99570.56
2018-01-19T03:29:37.610Z,99579.18
2018-01-19T03:32:06.041Z,99577.53
2018-01-19T03:34:34.337Z,99580.53
2018-01-19T03:37:02.669Z,99575.36
2018-01-19T03:39:30.977Z,99576.23
2018-01-19T03:41:59.305Z,99577.91
2018-01-19T03:44:27.621Z,99581.45
2018-01-19T03:46:55.961Z,99588.66
2018-01-19T03:49:24.277Z,99587.34
2018-01-19T03:51:52.605Z,99589.44
2018-01-19T03:54:20.922Z,99592.83
2018-01-19T03:56:49.253Z,99590.37
2018-01-19T03:59:17.591Z,99593.77
2018-01-19T04:01:45.909Z,99596.67
2018-01-19T04:04:14.229Z,99596.14
2018-01-19T04:06:42.569Z,99591.63
2018-01-19T04:09:10.886Z,99588.78
2018-01-19T04:11:39.229Z,99589.05
2018-01-19T04:14:07.541Z,99588.05
2018-01-19T04:16:35.946Z,99598.22
2018-01-19T04:19:04.387Z,99598.46
2018-01-19T04:21:32.705Z,99601.72
2018-01-19T04:24:01.050Z,99604.11
2018-01-19T04:26:29.361Z,99606.80
2018-01-19T04:28:57.704Z,99608.20
2018-01-19T04:31:26.018Z,99608.57
2018-01-19T04:33:54.357Z,99605.77
2018-01-19T04:36:22.673Z,99609.66
2018-01-19T04:38:51.007Z,99614.70
2018-01-19T04:41:19.325Z,99620.73
2018-01-19T04:43:47.658Z,99629.94
2018-01-19T04:46:15.978Z,99631.53
2018-01-19T04:48:44.322Z,99638.47
2018-01-19T04:51:12.642Z,99636.52
2018-01-19T04:53:40.981Z,99639.91
2018-01-19T04:56:09.292Z,99648.03
2018-01-19T04:58:37.629Z,99643.34
2018-01-19T05:01:05.944Z,99642.52
2018-01-19T05:03:34.276Z,99638.36
2018-01-19T05:06:02.597Z,99638.63
2018-01-19T05:08:30.929Z,99647.72
2018-01-19T05:10:59.253Z,99638.56
2018-01-19T05:13:27.593Z,99638.31
2018-01-19T05:15:55.914Z,99645.58
2018-01-19T05:18:24.253Z,99641.00
2018-01-19T05:20:52.572Z,99651.63
2018-01-19T05:23:20.915Z,99650.74
2018-01-19T05:25:49.238Z,99652.41
2018-01-19T05:28:17.578Z,99657.01
2018-01-19T05:30:45.897Z,99654.09
2018-01-19T05:33:14.233Z,99664.08
2018-01-19T05:35:42.557Z,99665.92
2018-01-19T05:38:10.897Z,99673.36
2018-01-19T05:40:39.214Z,99669.88
2018-01-19T05:43:07.559Z,99673.78
2018-01-19T05:45:35.872Z,99675.14
2018-01-19T05:48:04.215Z,99675.75
2018-01-19T05:50:32.538Z,99677.80
2018-01-19T05:53:00.880Z,99680.40
2018-01-19T05:55:29.202Z,99683.72
2018-01-19T05:57:58.053Z,99692.45
2018-01-19T06:00:26.369Z,99701.44
2018-01-19T06:02:54.710Z,99700.14
2018-01-19T06:05:23.048Z,99700.70
2018-01-19T06:07:51.389Z,99706.02
2018-01-19T06:10:19.713Z,99701.54
2018-01-19T06:12:48.058Z,99701.92
2018-01-19T06:15:16.454Z,99701.22
2018-01-19T06:17:45.621Z,99703.95
2018-01-19T06:20:13.946Z,99711.53
2018-01-19T06:25:29.354Z,99715.57
2018-01-19T06:27:57.952Z,99716.08
2018-01-19T06:30:27.006Z,99722.22
2018-01-19T06:32:55.374Z,99718.73
2018-01-19T06:35:23.701Z,99726.22
2018-01-19T06:37:52.027Z,99734.92
2018-01-19T06:40:20.370Z,99735.73
2018-01-19T06:42:48.701Z,99739.79
2018-01-19T06:45:17.085Z,99734.23
2018-01-19T06:47:45.409Z,99741.91
2018-01-19T06:50:14.665Z,99745.82
2018-01-19T06:52:43.019Z,99746.70
2018-01-19T06:55:11.362Z,99750.48
2018-01-19T06:57:39.681Z,99754.49
2018-01-19T07:00:08.029Z,99763.05
2018-01-19T07:02:36.354Z,99766.08
2018-01-19T07:05:04.706Z,99777.00
2018-01-19T07:07:33.034Z,99773.44
2018-01-19T07:10:01.377Z,99771.53
2018-01-19T07:12:31.846Z,99774.14
2018-01-19T07:15:00.189Z,99777.30
2018-01-19T07:17:28.509Z,99780.06
2018-01-19T07:19:56.854Z,99789.79
2018-01-19T07:22:25.177Z,99788.62
2018-01-19T07:24:53.530Z,99797.56
2018-01-19T07:27:21.857Z,99805.28
2018-01-19T07:29:50.201Z,99809.23
2018-01-19T07:32:18.521Z,99813.42
2018-01-19T07:34:46.871Z,99816.76
2018-01-19T07:37:15.185Z,99827.50
2018-01-19T07:39:43.525Z,99834.66
2018-01-19T07:42:11.850Z,99842.58
2018-01-19T07:44:40.199Z,99847.15
2018-01-19T07:47:08.526Z,99852.75
2018-01-19T07:49:36.864Z,99861.39
2018-01-19T07:52:05.194Z,99854.33
2018-01-19T07:54:33.534Z,99865.41
2018-01-19T07:57:01.902Z,99865.16
2018-01-19T07:59:30.250Z,99867.28
2018-01-19T08:01:58.601Z,99870.22
2018-01-19T08:04:26.949Z,99880.70
2018-01-19T08:06:55.266Z,99875.55
2018-01-19T08:09:23.605Z,99874.00
2018-01-19T08:11:51.921Z,99877.95
2018-01-19T08:14:20.262Z,99880.70
2018-01-19T08:16:48.582Z,99878.34
2018-01-19T08:19:16.921Z,99881.85
2018-01-19T08:21:45.237Z,99878.47
2018-01-19T08:24:13.582Z,99885.96
2018-01-19T08:26:41.897Z,99889.44
2018-01-19T08:29:10.238Z,99888.16
2018-01-19T08:31:38.558Z,99893.97
2018-01-19T08:34:06.902Z,99892.02
2018-01-19T08:36:35.217Z,99899.20
2018-01-19T08:39:03.572Z,99902.36
2018-01-19T08:41:31.884Z,99910.83
2018-01-19T08:44:00.206Z,99913.54
2018-01-19T08:46:28.546Z,99918.71
2018-01-19T08:48:56.869Z,99923.59
2018-01-19T08:51:25.214Z,99923.08
2018-01-19T08:53:53.535Z,99931.48
2018-01-19T08:56:21.877Z,99937.84
2018-01-19T08:58:50.202Z,99942.64
2018-01-19T09:01:18.551Z,99940.83
2018-01-19T09:03:46.869Z,99944.28
2018-01-19T09:06:15.248Z,99951.38
2018-01-19T09:08:43.926Z,99950.44
2018-01-19T09:11:12.482Z,99954.87
2018-01-19T09:13:40.846Z,99954.79
2018-01-19T09:16:10.163Z,99953.33
2018-01-19T09:18:38.489Z,99956.81
2018-01-19T09:21:06.834Z,99956.00
2018-01-19T09:23:35.165Z,99961.77
2018-01-19T09:26:03.506Z,99959.19
2018-01-19T09:28:31.827Z,99968.02
2018-01-19T09:31:00.169Z,99963.58
2018-01-19T09:33:28.493Z,99967.30
2018-01-19T09:35:56.874Z,99968.52
2018-01-19T09:38:25.193Z,99961.92
2018-01-19T09:40:53.537Z,99963.50
2018-01-19T09:43:21.853Z,99969.09
2018-01-19T09:45:50.202Z,99968.75
2018-01-19T09:48:18.527Z,99975.79
2018-01-19T09:50:46.902Z,99987.94
2018-01-19T09:53:15.205Z,99986.30
2018-01-19T09:55:43.578Z,99988.57
2018-01-19T09:58:11.897Z,99995.47
2018-01-19T10:00:40.258Z,100002.80
2018-01-19T10:03:08.581Z,99999.88
2018-01-19T10:05:37.914Z,100004.62
2018-01-19T10:08:06.237Z,99999.48
2018-01-19T10:10:34.581Z,100001.08
2018-01-19T10:13:02.914Z,99996.60
2018-01-19T10:15:31.840Z,99998.03
2018-01-19T10:18:00.169Z,100004.81
2018-01-19T10:20:28.517Z,100003.30
2018-01-19T10:22:56.846Z,100003.41
2018-01-19T10:25:25.200Z,100006.98
2018-01-19T10:27:53.530Z,100013.92
2018-01-19T10:30:21.885Z,100012.32
2018-01-19T10:32:50.209Z,100016.98
2018-01-19T10:35:19.462Z,100016.09
2018-01-19T10:37:47.785Z,100012.92
2018-01-19T10:40:16.136Z,100016.37
2018-01-19T10:42:44.466Z,100017.80
2018-01-19T10:45:12.821Z,100013.06
2018-01-19T10:47:41.169Z,100016.82
2018-01-19T10:50:09.502Z,100017.88
2018-01-19T10:52:37.854Z,100009.09
2018-01-19T10:55:06.186Z,100017.19
2018-01-19T10:57:34.533Z,100023.02
2018-01-19T11:00:02.870Z,100024.11
2018-01-19T11:02:31.217Z,100022.86
2018-01-19T11:04:59.546Z,100024.52
2018-01-19T11:07:27.898Z,100021.98
2018-01-19T11:09:56.222Z,100025.55
2018-01-19T11:12:24.568Z,100025.00
2018-01-19T11:14:52.898Z,100031.18
2018-01-19T11:17:21.250Z,100023.53
2018-01-19T11:19:49.573Z,100023.22
2018-01-19T11:22:17.921Z,100022.41
2018-01-19T11:24:46.255Z,100023.23
2018-01-19T11:27:14.602Z,100018.28
2018-01-19T11:29:42.934Z,100015.26
2018-01-19T11:32:11.287Z,100016.03
2018-01-19T11:34:39.619Z,100017.86
2018-01-19T11:37:07.969Z,100019.52
2018-01-19T11:39:36.294Z,100011.20
2018-01-19T11:42:04.641Z,100012.00
2018-01-19T11:44:32.970Z,100017.11
2018-01-19T11:47:01.327Z,100017.77
2018-01-19T11:49:29.654Z,100010.80
2018-01-19T11:51:58.010Z,100008.73
2018-01-19T11:54:26.338Z,100009.09
2018-01-19T11:56:54.696Z,100011.52
2018-01-19T11:59:23.018Z,100009.83
2018-01-19T12:01:51.368Z,100010.05
2018-01-19T12:04:19.692Z,100009.05
2018-01-19T12:06:48.047Z,100007.48
2018-01-19T12:09:16.369Z,100005.12
2018-01-19T12:11:44.717Z,100008.08
2018-01-19T12:14:13.049Z,100009.41
2018-01-19T12:16:41.593Z,100008.88
2018-01-19T12:19:10.140Z,100013.02
2018-01-19T12:21:38.486Z,100016.92
2018-01-19T12:24:06.813Z,100015.98
2018-01-19T12:26:35.165Z,100018.27
2018-01-19T12:29:03.493Z,100022.63
2018-01-19T12:31:31.837Z,100029.52
2018-01-19T12:34:00.165Z,100034.52
2018-01-19T12:36:28.518Z,100038.44
2018-01-19T12:38:56.944Z,100035.66
2018-01-19T12:41:25.294Z,100031.70
2018-01-19T12:43:53.669Z,100020.88
2018-01-19T12:46:22.936Z,100030.69
2018-01-19T12:48:51.297Z,100025.95
2018-01-19T12:51:19.671Z,100031.20
2018-01-19T12:53:48.038Z,100024.74
2018-01-19T12:56:17.348Z,100027.59
2018-01-19T12:58:45.698Z,100025.15
2018-01-19T13:01:14.041Z,100032.86
2018-01-19T13:03:42.393Z,100027.69
2018-01-19T13:06:10.716Z,100029.77
2018-01-19T13:08:39.066Z,100023.39
2018-01-19T13:11:07.385Z,100029.45
2018-01-19T13:13:35.787Z,100023.09
2018-01-19T13:16:04.120Z,100017.80
2018-01-19T13:18:32.465Z,100020.80
2018-01-19T13:21:00.790Z,100025.66
2018-01-19T13:23:29.137Z,100024.88
2018-01-19T13:25:57.466Z,100027.58
2018-01-19T13:28:25.813Z,100034.28
2018-01-19T13:30:54.141Z,100030.98
2018-01-19T13:33:22.487Z,100038.61
2018-01-19T13:35:51.710Z,100032.04
2018-01-19T13:38:20.067Z,100029.59
2018-01-19T13:40:48.390Z,100028.09
2018-01-19T13:43:16.742Z,100037.55
2018-01-19T13:45:45.089Z,100037.14
2018-01-19T13:48:13.458Z,100039.72
2018-01-19T13:50:41.791Z,100031.15
2018-01-19T13:53:10.178Z,100026.59
2018-01-19T13:55:38.506Z,100026.19
2018-01-19T13:58:06.851Z,100030.77
2018-01-19T14:00:35.182Z,100030.23
2018-01-19T14:03:03.583Z,100032.07
2018-01-19T14:05:32.600Z,100035.61
2018-01-19T14:08:00.921Z,100040.84
2018-01-19T14:10:29.271Z,100036.73
2018-01-19T14:12:57.593Z,100040.01
2018-01-19T14:15:25.914Z,100040.25
2018-01-19T14:17:54.386Z,100040.06
2018-01-19T14:20:22.709Z,100041.56
2018-01-19T14:22:51.051Z,100040.20
2018-01-19T14:25:20.172Z,100040.20
2018-01-19T14:27:48.517Z,100043.92
2018-01-19T14:30:17.402Z,100046.52
2018-01-19T14:32:45.757Z,100051.52
2018-01-19T14:35:14.077Z,100047.68
2018-01-19T14:37:42.417Z,100053.02
2018-01-19T14:40:10.737Z,100049.43
2018-01-19T14:42:39.077Z,100050.84
2018-01-19T14:45:07.406Z,100052.48
2018-01-19T14:47:35.754Z,100054.44
2018-01-19T14:50:04.074Z,100046.65
2018-01-19T14:52:32.402Z,100056.98
2018-01-19T14:55:01.305Z,100061.39
2018-01-19T14:57:29.763Z,100058.48
2018-01-19T14:59:58.257Z,100062.42
2018-01-19T15:02:26.817Z,100063.03
2018-01-19T15:04:55.291Z,100064.66
2018-01-19T15:07:23.676Z,100070.80
2018-01-19T15:09:52.018Z,100075.54
2018-01-19T15:12:20.424Z,100073.92
2018-01-19T15:14:48.918Z,100075.58
2018-01-19T15:17:17.242Z,100078.55
2018-01-19T15:19:45.582Z,100076.59
2018-01-19T15:22:13.901Z,100080.10
2018-01-19T15:24:42.245Z,100076.78
2018-01-19T15:27:10.566Z,100070.61
2018-01-19T15:29:38.905Z,100075.83
2018-01-19T15:32:07.229Z,100074.95
2018-01-19T15:34:36.553Z,100084.72
2018-01-19T15:37:04.876Z,100083.16
2018-01-19T15:39:33.224Z,100076.52
2018-01-19T15:42:01.541Z,100078.34
2018-01-19T15:44:29.881Z,100081.75
2018-01-19T15:46:58.206Z,100082.77
2018-01-19T15:49:26.549Z,100082.27
2018-01-19T15:51:54.869Z,100077.87
2018-01-19T15:54:24.081Z,100075.28
2018-01-19T15:56:52.401Z,100076.66
2018-01-19T15:59:21.919Z,100080.95
2018-01-19T16:01:50.247Z,100077.90
2018-01-19T16:04:18.586Z,100087.22
2018-01-19T16:06:46.900Z,100088.61
2018-01-19T16:09:15.249Z,100080.95
2018-01-19T16:11:43.557Z,100080.10
2018-01-19T16:14:11.896Z,100078.41
2018-01-19T16:16:40.218Z,100077.37
2018-01-19T16:19:08.555Z,100073.96
2018-01-19T16:21:36.870Z,100079.62
2018-01-19T16:24:06.057Z,100081.44
2018-01-19T16:26:34.384Z,100080.28
2018-01-19T16:29:02.721Z,100088.20
2018-01-19T16:31:31.041Z,100084.25
2018-01-19T16:33:59.656Z,100089.55
2018-01-19T16:36:27.990Z,100082.88
2018-01-19T16:38:56.317Z,100082.48
2018-01-19T16:41:24.645Z,100085.63
2018-01-19T16:43:52.985Z,100081.07
2018-01-19T16:46:21.322Z,100077.95
2018-01-19T16:48:49.653Z,100073.80
2018-01-19T16:51:17.973Z,100075.66
2018-01-19T16:53:46.469Z,100075.95
2018-01-19T16:56:14.789Z,100072.49
2018-01-19T16:58:43.106Z,100078.33
2018-01-19T17:01:11.445Z,100082.77
2018-01-19T17:03:39.766Z,100082.81
2018-01-19T17:06:08.106Z,100080.82
2018-01-19T17:08:36.433Z,100083.49
2018-01-19T17:11:05.101Z,100088.20
2018-01-19T17:13:34.190Z,100092.54
2018-01-19T17:16:02.538Z,100088.75
2018-01-19T17:18:30.857Z,100087.47
2018-01-19T17:20:59.209Z,100087.31
2018-01-19T17:23:27.541Z,100089.73
2018-01-19T17:25:56.789Z,100087.67
2018-01-19T17:28:25.113Z,100087.61
2018-01-19T17:30:53.461Z,100089.66
2018-01-19T17:33:21.785Z,100086.68
2018-01-19T17:35:50.168Z,100093.95
2018-01-19T17:38:18.482Z,100086.49
2018-01-19T17:40:46.828Z,100085.66
2018-01-19T17:43:15.158Z,100098.05
2018-01-19T17:45:43.497Z,100111.50
2018-01-19T17:48:11.816Z,100118.50
2018-01-19T17:50:40.171Z,100118.41
2018-01-19T17:53:09.469Z,100113.15
2018-01-19T17:55:37.810Z,100115.59
2018-01-19T17:58:06.153Z,100099.15
2018-01-19T18:00:34.503Z,100110.32
2018-01-19T18:03:02.832Z,100106.70
2018-01-19T18:05:31.506Z,100104.74
2018-01-19T18:07:59.838Z,100103.12
2018-01-19T18:10:28.200Z,100103.61
2018-01-19T18:12:56.538Z,100092.94
2018-01-19T18:15:24.853Z,100105.97
2018-01-19T18:17:53.181Z,100101.35
2018-01-19T18:20:21.631Z,100108.15
2018-01-19T18:22:49.990Z,100109.89
2018-01-19T18:25:18.344Z,100116.75
2018-01-19T18:27:46.705Z,100114.35
2018-01-19T18:30:15.119Z,100114.94
2018-01-19T18:32:43.970Z,100120.91
2018-01-19T18:35:12.352Z,100125.19
2018-01-19T18:37:40.718Z,100113.97
2018-01-19T18:40:09.090Z,100112.68
2018-01-19T18:42:37.440Z,100118.47
2018-01-19T18:45:08.972Z,100109.44
2018-01-19T18:47:41.259Z,100116.44
2018-01-19T18:50:13.953Z,100106.23
2018-01-19T18:52:45.478Z,100111.05
2018-01-19T18:55:15.066Z,100112.92
2018-01-19T18:57:44.555Z,100107.91
2018-01-19T19:00:13.156Z,100117.36
2018-01-19T19:02:41.678Z,100111.83
2018-01-19T19:05:10.014Z,100113.52
2018-01-19T19:07:38.336Z,100110.66
2018-01-19T19:10:06.669Z,100109.06
2018-01-19T19:12:34.990Z,100113.59
2018-01-19T19:15:03.353Z,100114.34
2018-01-19T19:17:31.671Z,100113.69
2018-01-19T19:19:59.986Z,100104.95
2018-01-19T19:22:28.348Z,100111.27
2018-01-19T19:24:58.244Z,100108.70
2018-01-19T19:27:26.944Z,100104.45
2018-01-19T19:29:59.671Z,100104.97
2018-01-19T19:32:29.470Z,100101.87
2018-01-19T19:34:57.850Z,100103.03
2018-01-19T19:37:26.250Z,100103.66
2018-01-19T19:39:54.635Z,100106.56
2018-01-19T19:42:23.041Z,100105.35
2018-01-19T19:44:51.372Z,100101.77
2018-01-19T19:47:19.729Z,100108.62
2018-01-19T19:49:48.077Z,100106.94
2018-01-19T19:52:16.447Z,100103.80
2018-01-19T19:54:44.777Z,100101.91
2018-01-19T19:57:13.143Z,100099.73
2018-01-19T19:59:41.495Z,100106.66
2018-01-19T20:02:09.849Z,100117.29
2018-01-19T20:04:38.169Z,100114.23
2018-01-19T20:07:06.911Z,100112.84
2018-01-19T20:09:35.229Z,100114.59
2018-01-19T20:12:03.574Z,100112.23
2018-01-19T20:14:31.902Z,100111.47
2018-01-19T20:17:00.246Z,100111.30
2018-01-19T20:19:28.566Z,100116.73
2018-01-19T20:21:56.913Z,100119.91
2018-01-19T20:24:25.238Z,100115.05
2018-01-19T20:26:54.490Z,100121.30
2018-01-19T20:29:22.777Z,100118.78
2018-01-19T20:31:51.121Z,100113.74
2018-01-19T20:34:19.449Z,100110.31
2018-01-19T20:36:47.801Z,100104.63
2018-01-19T20:39:16.134Z,100110.81
2018-01-19T20:41:44.481Z,100104.58
2018-01-19T20:44:12.809Z,100104.96
2018-01-19T20:46:42.097Z,100103.66
2018-01-19T20:49:10.425Z,100099.89
2018-01-19T20:51:38.778Z,100110.05
2018-01-19T20:54:07.402Z,100110.38
2018-01-19T20:56:35.773Z,100104.33
2018-01-19T20:59:04.100Z,100100.72
2018-01-19T21:01:32.474Z,100101.95
2018-01-19T21:04:00.781Z,100098.23
2018-01-19T21:06:29.125Z,100095.66
2018-01-19T21:08:57.454Z,100093.98
2018-01-19T21:11:25.802Z,100097.02
2018-01-19T21:13:54.125Z,100094.91
2018-01-19T21:16:22.477Z,100091.31
2018-01-19T21:18:50.882Z,100096.55
2018-01-19T21:21:19.225Z,100098.23
2018-01-19T21:23:47.557Z,100101.64
2018-01-19T21:26:15.906Z,100093.60
2018-01-19T21:28:44.261Z,100100.39
2018-01-19T21:31:12.649Z,100101.78
2018-01-19T21:33:40.990Z,100098.09
2018-01-19T21:36:09.314Z,100090.76
2018-01-19T21:38:37.661Z,100092.42
2018-01-19T21:41:05.985Z,100089.54
2018-01-19T21:43:34.332Z,100091.17
2018-01-19T21:46:02.662Z,100090.48
2018-01-19T21:48:31.018Z,100096.36
2018-01-19T21:50:59.336Z,100094.30
2018-01-19T21:53:27.685Z,100085.55
2018-01-19T21:55:56.957Z,100088.55
2018-01-19T21:58:25.334Z,100095.05
2018-01-19T22:00:53.661Z,100099.16
2018-01-19T22:03:22.005Z,100096.61
2018-01-19T22:05:50.333Z,100102.64
2018-01-19T22:08:18.678Z,100107.14
2018-01-19T22:10:47.013Z,100103.64
2018-01-19T22:13:15.365Z,100093.92
2018-01-19T22:15:43.689Z,100097.29
2018-01-19T22:18:12.038Z,100100.22
2018-01-19T22:20:40.369Z,100094.92
2018-01-19T22:23:08.717Z,100101.09
2018-01-19T22:25:37.049Z,100101.91
2018-01-19T22:28:05.398Z,100105.33
2018-01-19T22:30:33.722Z,100108.07
2018-01-19T22:33:02.071Z,100100.21
2018-01-19T22:35:30.397Z,100101.39
2018-01-19T22:37:58.746Z,100097.55
2018-01-19T22:40:27.075Z,100097.08
2018-01-19T22:42:55.421Z,100097.97
2018-01-19T22:45:23.750Z,100097.23
2018-01-19T22:47:52.098Z,100102.20
2018-01-19T22:50:20.417Z,100099.64
2018-01-19T22:52:48.760Z,100103.89
2018-01-19T22:55:17.089Z,100101.00
2018-01-19T22:57:45.436Z,100090.81
2018-01-19T23:00:21.560Z,100098.31
2018-01-19T23:02:49.904Z,100096.53
2018-01-19T23:05:18.235Z,100094.11
2018-01-19T23:07:46.581Z,100087.19
2018-01-19T23:10:14.910Z,100088.55
2018-01-19T23:12:43.252Z,100097.03
2018-01-19T23:15:11.582Z,100099.51
2018-01-19T23:17:39.935Z,100092.00
2018-01-19T23:20:08.253Z,100099.02
2018-01-19T23:22:36.605Z,100098.69
2018-01-19T23:25:04.929Z,100096.46
2018-01-19T23:27:33.281Z,100098.71
2018-01-19T23:30:01.619Z,100101.46
2018-01-19T23:32:29.974Z,100101.16
2018-01-19T23:34:58.301Z,100106.38
2018-01-19T23:37:26.631Z,100106.91
2018-01-19T23:39:54.974Z,100109.92
2018-01-19T23:42:23.305Z,100101.80
2018-01-19T23:44:51.649Z,100100.45
2018-01-19T23:47:19.973Z,100098.94
2018-01-19T23:49:48.318Z,100097.72
2018-01-19T23:52:16.645Z,100093.41
2018-01-19T23:54:44.989Z,100091.85
2018-01-19T23:57:15.028Z,100098.12
2018-01-19T23:59:43.369Z,100089.22
